sensor_id;sensor_type;location;lat;lon;timestamp;temperature;humidity
13494;DHT22;6819;50.886;4.332;2024-02-04T00:00:30;11.10;99.90
13494;DHT22;6819;50.886;4.332;2024-02-04T00:02:55;10.60;99.90
13494;DHT22;6819;50.886;4.332;2024-02-04T00:05:21;10.70;99.90
13494;DHT22;6819;50.886;4.332;2024-02-04T00:07:47;10.80;99.90
13494;DHT22;6819;50.886;4.332;2024-02-04T00:10:12;10.90;99.90
13494;DHT22;6819;50.886;4.332;2024-02-04T00:12:41;11.30;99.90
13494;DHT22;6819;50.886;4.332;2024-02-04T00:15:07;10.80;99.90
13494;DHT22;6819;50.886;4.332;2024-02-04T00:17:33;10.50;99.90
13494;DHT22;6819;50.886;4.332;2024-02-04T00:20:03;10.90;99.90
13494;DHT22;6819;50.886;4.332;2024-02-04T00:22:33;10.90;99.90
13494;DHT22;6819;50.886;4.332;2024-02-04T00:25:00;11.10;99.90
13494;DHT22;6819;50.886;4.332;2024-02-04T00:27:31;10.10;99.90
13494;DHT22;6819;50.886;4.332;2024-02-04T00:29:57;10.50;99.90
13494;DHT22;6819;50.886;4.332;2024-02-04T00:32:23;10.90;99.90
13494;DHT22;6819;50.886;4.332;2024-02-04T00:34:49;10.60;99.90
13494;DHT22;6819;50.886;4.332;2024-02-04T00:37:14;10.90;99.90
13494;DHT22;6819;50.886;4.332;2024-02-04T00:39:40;11.20;99.90
13494;DHT22;6819;50.886;4.332;2024-02-04T00:42:06;10.90;99.90
13494;DHT22;6819;50.886;4.332;2024-02-04T00:44:31;10.80;99.90
13494;DHT22;6819;50.886;4.332;2024-02-04T00:46:57;10.90;99.90
13494;DHT22;6819;50.886;4.332;2024-02-04T00:49:23;10.90;99.90
13494;DHT22;6819;50.886;4.332;2024-02-04T00:51:48;10.90;99.90
13494;DHT22;6819;50.886;4.332;2024-02-04T00:54:14;10.90;99.90
13494;DHT22;6819;50.886;4.332;2024-02-04T00:56:39;10.30;99.90
13494;DHT22;6819;50.886;4.332;2024-02-04T00:59:05;10.90;99.90
13494;DHT22;6819;50.886;4.332;2024-02-04T01:01:31;10.80;99.90
13494;DHT22;6819;50.886;4.332;2024-02-04T01:03:56;10.80;99.90
13494;DHT22;6819;50.886;4.332;2024-02-04T01:06:22;10.90;99.90
13494;DHT22;6819;50.886;4.332;2024-02-04T01:08:48;10.90;99.90
13494;DHT22;6819;50.886;4.332;2024-02-04T01:11:13;10.90;99.90
13494;DHT22;6819;50.886;4.332;2024-02-04T01:13:39;10.90;99.90
13494;DHT22;6819;50.886;4.332;2024-02-04T01:16:05;10.90;99.90
13494;DHT22;6819;50.886;4.332;2024-02-04T01:18:30;10.90;99.90
13494;DHT22;6819;50.886;4.332;2024-02-04T01:20:57;10.70;99.90
13494;DHT22;6819;50.886;4.332;2024-02-04T01:23:23;10.90;99.90
13494;DHT22;6819;50.886;4.332;2024-02-04T01:25:49;10.90;99.90
13494;DHT22;6819;50.886;4.332;2024-02-04T01:28:15;11.00;99.90
13494;DHT22;6819;50.886;4.332;2024-02-04T01:30:40;11.00;99.90
13494;DHT22;6819;50.886;4.332;2024-02-04T01:33:06;10.90;99.90
13494;DHT22;6819;50.886;4.332;2024-02-04T01:37:57;11.00;99.90
13494;DHT22;6819;50.886;4.332;2024-02-04T01:40:23;10.90;99.90
13494;DHT22;6819;50.886;4.332;2024-02-04T01:42:49;11.10;99.90
13494;DHT22;6819;50.886;4.332;2024-02-04T01:45:14;11.00;99.90
13494;DHT22;6819;50.886;4.332;2024-02-04T01:47:40;11.00;99.90
13494;DHT22;6819;50.886;4.332;2024-02-04T01:50:06;11.00;99.90
13494;DHT22;6819;50.886;4.332;2024-02-04T01:52:33;11.10;99.90
13494;DHT22;6819;50.886;4.332;2024-02-04T01:55:02;11.10;99.90
13494;DHT22;6819;50.886;4.332;2024-02-04T01:57:28;11.10;99.90
13494;DHT22;6819;50.886;4.332;2024-02-04T01:59:55;11.20;99.90
13494;DHT22;6819;50.886;4.332;2024-02-04T02:02:22;11.00;99.90
13494;DHT22;6819;50.886;4.332;2024-02-04T02:04:48;11.50;99.90
13494;DHT22;6819;50.886;4.332;2024-02-04T02:07:15;11.10;99.90
13494;DHT22;6819;50.886;4.332;2024-02-04T02:09:42;10.90;99.90
13494;DHT22;6819;50.886;4.332;2024-02-04T02:12:14;11.10;99.90
13494;DHT22;6819;50.886;4.332;2024-02-04T02:14:44;11.00;99.90
13494;DHT22;6819;50.886;4.332;2024-02-04T02:17:14;11.10;99.90
13494;DHT22;6819;50.886;4.332;2024-02-04T02:19:59;11.30;99.90
13494;DHT22;6819;50.886;4.332;2024-02-04T02:22:54;10.80;99.90
13494;DHT22;6819;50.886;4.332;2024-02-04T02:25:27;11.10;99.90
13494;DHT22;6819;50.886;4.332;2024-02-04T02:27:53;11.20;99.90
13494;DHT22;6819;50.886;4.332;2024-02-04T02:30:19;11.30;99.90
13494;DHT22;6819;50.886;4.332;2024-02-04T02:32:46;11.20;99.90
13494;DHT22;6819;50.886;4.332;2024-02-04T02:35:14;11.00;99.90
13494;DHT22;6819;50.886;4.332;2024-02-04T02:37:55;11.10;99.90
13494;DHT22;6819;50.886;4.332;2024-02-04T02:40:39;11.20;99.90
13494;DHT22;6819;50.886;4.332;2024-02-04T02:43:10;10.70;99.90
13494;DHT22;6819;50.886;4.332;2024-02-04T02:45:39;11.00;99.90
13494;DHT22;6819;50.886;4.332;2024-02-04T02:48:07;10.60;99.90
13494;DHT22;6819;50.886;4.332;2024-02-04T02:50:37;11.20;99.90
13494;DHT22;6819;50.886;4.332;2024-02-04T02:53:03;11.20;99.90
13494;DHT22;6819;50.886;4.332;2024-02-04T02:55:29;11.80;99.90
13494;DHT22;6819;50.886;4.332;2024-02-04T02:57:55;11.20;99.90
13494;DHT22;6819;50.886;4.332;2024-02-04T03:00:21;11.20;99.90
13494;DHT22;6819;50.886;4.332;2024-02-04T03:05:15;11.10;99.90
13494;DHT22;6819;50.886;4.332;2024-02-04T03:07:41;10.80;99.90
13494;DHT22;6819;50.886;4.332;2024-02-04T03:10:07;11.10;99.90
13494;DHT22;6819;50.886;4.332;2024-02-04T03:12:33;11.00;99.90
13494;DHT22;6819;50.886;4.332;2024-02-04T03:14:59;11.20;99.90
13494;DHT22;6819;50.886;4.332;2024-02-04T03:17:25;11.20;99.90
13494;DHT22;6819;50.886;4.332;2024-02-04T03:19:50;11.60;99.90
13494;DHT22;6819;50.886;4.332;2024-02-04T03:22:22;11.20;99.90
13494;DHT22;6819;50.886;4.332;2024-02-04T03:24:48;10.90;99.90
13494;DHT22;6819;50.886;4.332;2024-02-04T03:27:18;11.10;99.90
13494;DHT22;6819;50.886;4.332;2024-02-04T03:29:44;11.10;99.90
13494;DHT22;6819;50.886;4.332;2024-02-04T03:32:11;11.10;99.90
13494;DHT22;6819;50.886;4.332;2024-02-04T03:34:36;11.20;99.90
13494;DHT22;6819;50.886;4.332;2024-02-04T03:37:02;11.20;99.90
13494;DHT22;6819;50.886;4.332;2024-02-04T03:39:28;11.10;99.90
13494;DHT22;6819;50.886;4.332;2024-02-04T03:41:54;11.10;99.90
13494;DHT22;6819;50.886;4.332;2024-02-04T03:44:19;11.20;99.90
13494;DHT22;6819;50.886;4.332;2024-02-04T03:46:48;11.10;99.90
13494;DHT22;6819;50.886;4.332;2024-02-04T03:49:14;11.10;99.90
13494;DHT22;6819;50.886;4.332;2024-02-04T03:51:40;11.10;99.90
13494;DHT22;6819;50.886;4.332;2024-02-04T03:54:06;11.10;99.90
13494;DHT22;6819;50.886;4.332;2024-02-04T03:56:31;11.10;99.90
13494;DHT22;6819;50.886;4.332;2024-02-04T03:58:57;10.90;99.90
13494;DHT22;6819;50.886;4.332;2024-02-04T04:01:23;11.10;99.90
13494;DHT22;6819;50.886;4.332;2024-02-04T04:03:49;11.10;99.90
13494;DHT22;6819;50.886;4.332;2024-02-04T04:06:15;11.10;99.90
13494;DHT22;6819;50.886;4.332;2024-02-04T04:08:41;11.10;99.90
13494;DHT22;6819;50.886;4.332;2024-02-04T04:11:08;11.10;99.90
13494;DHT22;6819;50.886;4.332;2024-02-04T04:13:34;11.10;99.90
13494;DHT22;6819;50.886;4.332;2024-02-04T04:16:01;11.10;99.90
13494;DHT22;6819;50.886;4.332;2024-02-04T04:18:26;11.10;99.90
13494;DHT22;6819;50.886;4.332;2024-02-04T04:20:52;11.10;99.90
13494;DHT22;6819;50.886;4.332;2024-02-04T04:23:18;11.10;99.90
13494;DHT22;6819;50.886;4.332;2024-02-04T04:25:43;11.10;99.90
13494;DHT22;6819;50.886;4.332;2024-02-04T04:28:09;11.10;99.90
13494;DHT22;6819;50.886;4.332;2024-02-04T04:30:35;11.10;99.90
13494;DHT22;6819;50.886;4.332;2024-02-04T04:33:00;11.10;99.90
13494;DHT22;6819;50.886;4.332;2024-02-04T04:35:26;11.10;99.90
13494;DHT22;6819;50.886;4.332;2024-02-04T04:40:18;11.10;99.90
13494;DHT22;6819;50.886;4.332;2024-02-04T04:42:44;11.20;99.90
13494;DHT22;6819;50.886;4.332;2024-02-04T04:45:10;11.10;99.90
13494;DHT22;6819;50.886;4.332;2024-02-04T04:47:36;11.10;99.90
13494;DHT22;6819;50.886;4.332;2024-02-04T04:50:03;11.10;99.90
13494;DHT22;6819;50.886;4.332;2024-02-04T04:52:28;11.10;99.90
13494;DHT22;6819;50.886;4.332;2024-02-04T04:54:55;11.00;99.90
13494;DHT22;6819;50.886;4.332;2024-02-04T04:57:21;11.00;99.90
13494;DHT22;6819;50.886;4.332;2024-02-04T04:59:47;11.10;99.90
13494;DHT22;6819;50.886;4.332;2024-02-04T05:02:13;11.10;99.90
13494;DHT22;6819;50.886;4.332;2024-02-04T05:04:41;11.30;99.90
13494;DHT22;6819;50.886;4.332;2024-02-04T05:07:07;11.10;99.90
13494;DHT22;6819;50.886;4.332;2024-02-04T05:09:33;11.00;99.90
13494;DHT22;6819;50.886;4.332;2024-02-04T05:11:58;11.10;99.90
13494;DHT22;6819;50.886;4.332;2024-02-04T05:14:24;10.80;99.90
13494;DHT22;6819;50.886;4.332;2024-02-04T05:16:49;10.80;99.90
13494;DHT22;6819;50.886;4.332;2024-02-04T05:19:15;11.30;99.90
13494;DHT22;6819;50.886;4.332;2024-02-04T05:21:41;11.00;99.90
13494;DHT22;6819;50.886;4.332;2024-02-04T05:24:06;11.00;99.90
13494;DHT22;6819;50.886;4.332;2024-02-04T05:26:32;9.40;99.90
13494;DHT22;6819;50.886;4.332;2024-02-04T05:28:58;11.10;99.90
13494;DHT22;6819;50.886;4.332;2024-02-04T05:31:23;12.00;99.90
13494;DHT22;6819;50.886;4.332;2024-02-04T05:33:51;11.10;99.90
13494;DHT22;6819;50.886;4.332;2024-02-04T05:36:17;11.10;99.90
13494;DHT22;6819;50.886;4.332;2024-02-04T05:41:12;11.10;99.90
13494;DHT22;6819;50.886;4.332;2024-02-04T05:43:39;11.50;99.90
13494;DHT22;6819;50.886;4.332;2024-02-04T05:46:05;11.40;99.90
13494;DHT22;6819;50.886;4.332;2024-02-04T05:48:31;11.20;99.90
13494;DHT22;6819;50.886;4.332;2024-02-04T05:50:56;11.20;99.90
13494;DHT22;6819;50.886;4.332;2024-02-04T05:53:22;11.20;99.90
13494;DHT22;6819;50.886;4.332;2024-02-04T05:55:47;11.10;99.90
13494;DHT22;6819;50.886;4.332;2024-02-04T05:58:13;11.10;99.90
13494;DHT22;6819;50.886;4.332;2024-02-04T06:00:40;10.90;99.90
13494;DHT22;6819;50.886;4.332;2024-02-04T06:03:06;11.20;99.90
13494;DHT22;6819;50.886;4.332;2024-02-04T06:05:31;11.10;99.90
13494;DHT22;6819;50.886;4.332;2024-02-04T06:07:57;11.20;99.90
13494;DHT22;6819;50.886;4.332;2024-02-04T06:10:23;11.10;99.90
13494;DHT22;6819;50.886;4.332;2024-02-04T06:12:48;11.20;99.90
13494;DHT22;6819;50.886;4.332;2024-02-04T06:15:15;11.20;99.90
13494;DHT22;6819;50.886;4.332;2024-02-04T06:17:41;11.20;99.90
13494;DHT22;6819;50.886;4.332;2024-02-04T06:20:07;11.20;99.90
13494;DHT22;6819;50.886;4.332;2024-02-04T06:22:38;11.10;99.90
13494;DHT22;6819;50.886;4.332;2024-02-04T06:25:04;11.20;99.90
13494;DHT22;6819;50.886;4.332;2024-02-04T06:27:30;11.00;99.90
13494;DHT22;6819;50.886;4.332;2024-02-04T06:29:56;9.70;99.90
13494;DHT22;6819;50.886;4.332;2024-02-04T06:32:22;10.50;99.90
13494;DHT22;6819;50.886;4.332;2024-02-04T06:34:49;11.10;99.90
13494;DHT22;6819;50.886;4.332;2024-02-04T06:37:16;11.10;99.90
13494;DHT22;6819;50.886;4.332;2024-02-04T06:39:42;11.20;99.90
13494;DHT22;6819;50.886;4.332;2024-02-04T06:42:08;11.20;99.90
13494;DHT22;6819;50.886;4.332;2024-02-04T06:44:34;11.50;99.90
13494;DHT22;6819;50.886;4.332;2024-02-04T06:46:59;11.20;99.90
13494;DHT22;6819;50.886;4.332;2024-02-04T06:49:25;11.20;99.90
13494;DHT22;6819;50.886;4.332;2024-02-04T06:51:52;11.20;99.90
13494;DHT22;6819;50.886;4.332;2024-02-04T06:54:22;11.20;99.90
13494;DHT22;6819;50.886;4.332;2024-02-04T06:56:48;10.60;99.90
13494;DHT22;6819;50.886;4.332;2024-02-04T06:59:13;11.20;99.90
13494;DHT22;6819;50.886;4.332;2024-02-04T07:01:39;11.50;99.90
13494;DHT22;6819;50.886;4.332;2024-02-04T07:04:05;11.20;99.90
13494;DHT22;6819;50.886;4.332;2024-02-04T07:06:30;11.10;99.90
13494;DHT22;6819;50.886;4.332;2024-02-04T07:08:56;11.20;99.90
13494;DHT22;6819;50.886;4.332;2024-02-04T07:11:21;11.20;99.90
13494;DHT22;6819;50.886;4.332;2024-02-04T07:13:47;11.20;99.90
13494;DHT22;6819;50.886;4.332;2024-02-04T07:16:13;11.30;99.90
13494;DHT22;6819;50.886;4.332;2024-02-04T07:18:38;11.20;99.90
13494;DHT22;6819;50.886;4.332;2024-02-04T07:21:04;11.20;99.90
13494;DHT22;6819;50.886;4.332;2024-02-04T07:23:30;11.20;99.90
13494;DHT22;6819;50.886;4.332;2024-02-04T07:25:55;9.80;99.90
13494;DHT22;6819;50.886;4.332;2024-02-04T07:28:21;11.20;99.90
13494;DHT22;6819;50.886;4.332;2024-02-04T07:30:47;11.10;99.90
13494;DHT22;6819;50.886;4.332;2024-02-04T07:33:13;11.00;99.90
13494;DHT22;6819;50.886;4.332;2024-02-04T07:35:38;11.10;99.90
13494;DHT22;6819;50.886;4.332;2024-02-04T07:38:04;11.20;99.90
13494;DHT22;6819;50.886;4.332;2024-02-04T07:40:30;11.20;99.90
13494;DHT22;6819;50.886;4.332;2024-02-04T07:42:55;11.20;99.90
13494;DHT22;6819;50.886;4.332;2024-02-04T07:45:21;10.90;99.90
13494;DHT22;6819;50.886;4.332;2024-02-04T07:47:47;11.20;99.90
13494;DHT22;6819;50.886;4.332;2024-02-04T07:50:13;11.20;99.90
13494;DHT22;6819;50.886;4.332;2024-02-04T07:52:39;11.20;99.90
13494;DHT22;6819;50.886;4.332;2024-02-04T07:55:04;11.30;99.90
13494;DHT22;6819;50.886;4.332;2024-02-04T07:59:58;11.30;99.90
13494;DHT22;6819;50.886;4.332;2024-02-04T08:02:24;11.20;99.90
13494;DHT22;6819;50.886;4.332;2024-02-04T08:04:49;11.30;99.90
13494;DHT22;6819;50.886;4.332;2024-02-04T08:07:15;11.30;99.90
13494;DHT22;6819;50.886;4.332;2024-02-04T08:12:08;11.20;99.90
13494;DHT22;6819;50.886;4.332;2024-02-04T08:14:35;11.30;99.90
13494;DHT22;6819;50.886;4.332;2024-02-04T08:19:26;11.30;99.90
13494;DHT22;6819;50.886;4.332;2024-02-04T08:21:52;11.30;99.90
13494;DHT22;6819;50.886;4.332;2024-02-04T08:24:18;11.60;99.90
13494;DHT22;6819;50.886;4.332;2024-02-04T08:29:09;11.30;99.90
13494;DHT22;6819;50.886;4.332;2024-02-04T08:31:36;11.40;99.90
13494;DHT22;6819;50.886;4.332;2024-02-04T08:34:01;11.30;99.90
13494;DHT22;6819;50.886;4.332;2024-02-04T08:36:29;11.30;99.90
13494;DHT22;6819;50.886;4.332;2024-02-04T08:38:56;12.30;99.90
13494;DHT22;6819;50.886;4.332;2024-02-04T08:41:22;11.30;99.90
13494;DHT22;6819;50.886;4.332;2024-02-04T08:43:47;11.40;99.90
13494;DHT22;6819;50.886;4.332;2024-02-04T08:46:13;11.10;99.90
13494;DHT22;6819;50.886;4.332;2024-02-04T08:48:39;11.30;99.90
13494;DHT22;6819;50.886;4.332;2024-02-04T08:53:36;11.50;99.90
13494;DHT22;6819;50.886;4.332;2024-02-04T08:56:01;11.40;99.90
13494;DHT22;6819;50.886;4.332;2024-02-04T08:58:27;11.40;99.90
13494;DHT22;6819;50.886;4.332;2024-02-04T09:00:53;11.50;99.90
13494;DHT22;6819;50.886;4.332;2024-02-04T09:03:18;11.40;99.90
13494;DHT22;6819;50.886;4.332;2024-02-04T09:05:44;11.40;99.90
13494;DHT22;6819;50.886;4.332;2024-02-04T09:08:09;11.30;99.90
13494;DHT22;6819;50.886;4.332;2024-02-04T09:10:36;12.20;99.90
13494;DHT22;6819;50.886;4.332;2024-02-04T09:13:02;11.40;99.90
13494;DHT22;6819;50.886;4.332;2024-02-04T09:15:27;11.40;99.90
13494;DHT22;6819;50.886;4.332;2024-02-04T09:17:53;11.40;99.90
13494;DHT22;6819;50.886;4.332;2024-02-04T09:20:19;12.30;99.90
13494;DHT22;6819;50.886;4.332;2024-02-04T09:22:44;11.90;99.90
13494;DHT22;6819;50.886;4.332;2024-02-04T09:25:10;12.10;99.90
13494;DHT22;6819;50.886;4.332;2024-02-04T09:32:28;11.60;99.90
13494;DHT22;6819;50.886;4.332;2024-02-04T09:34:53;11.30;99.90
13494;DHT22;6819;50.886;4.332;2024-02-04T09:37:19;11.40;99.90
13494;DHT22;6819;50.886;4.332;2024-02-04T09:39:45;11.90;99.90
13494;DHT22;6819;50.886;4.332;2024-02-04T09:42:19;11.50;99.90
13494;DHT22;6819;50.886;4.332;2024-02-04T09:44:48;11.60;99.90
13494;DHT22;6819;50.886;4.332;2024-02-04T09:49:41;11.60;99.90
13494;DHT22;6819;50.886;4.332;2024-02-04T09:52:07;11.50;99.90
13494;DHT22;6819;50.886;4.332;2024-02-04T09:59:48;11.70;99.90
13494;DHT22;6819;50.886;4.332;2024-02-04T10:07:06;11.70;99.90
13494;DHT22;6819;50.886;4.332;2024-02-04T10:09:32;11.50;99.90
13494;DHT22;6819;50.886;4.332;2024-02-04T10:11:59;11.40;99.90
13494;DHT22;6819;50.886;4.332;2024-02-04T10:14:24;11.60;99.90
13494;DHT22;6819;50.886;4.332;2024-02-04T10:16:50;11.60;99.90
13494;DHT22;6819;50.886;4.332;2024-02-04T10:19:16;11.70;99.90
13494;DHT22;6819;50.886;4.332;2024-02-04T10:21:42;11.90;99.90
13494;DHT22;6819;50.886;4.332;2024-02-04T10:26:34;11.80;99.90
13494;DHT22;6819;50.886;4.332;2024-02-04T10:29:03;11.80;99.90
13494;DHT22;6819;50.886;4.332;2024-02-04T10:36:22;11.90;99.90
13494;DHT22;6819;50.886;4.332;2024-02-04T10:48:41;11.70;99.90
13494;DHT22;6819;50.886;4.332;2024-02-04T10:51:14;11.90;99.90
13494;DHT22;6819;50.886;4.332;2024-02-04T10:53:45;12.00;99.90
13494;DHT22;6819;50.886;4.332;2024-02-04T10:56:21;12.00;99.90
13494;DHT22;6819;50.886;4.332;2024-02-04T10:58:47;12.00;99.90
13494;DHT22;6819;50.886;4.332;2024-02-04T11:01:14;11.80;99.90
13494;DHT22;6819;50.886;4.332;2024-02-04T11:03:40;12.00;99.90
13494;DHT22;6819;50.886;4.332;2024-02-04T11:06:10;11.90;99.90
13494;DHT22;6819;50.886;4.332;2024-02-04T11:08:40;11.90;99.90
13494;DHT22;6819;50.886;4.332;2024-02-04T11:11:06;11.10;99.90
13494;DHT22;6819;50.886;4.332;2024-02-04T11:13:32;12.20;99.90
13494;DHT22;6819;50.886;4.332;2024-02-04T11:18:53;11.90;99.90
13494;DHT22;6819;50.886;4.332;2024-02-04T11:21:36;11.90;99.90
13494;DHT22;6819;50.886;4.332;2024-02-04T11:24:32;12.20;99.90
13494;DHT22;6819;50.886;4.332;2024-02-04T11:29:26;12.40;99.90
13494;DHT22;6819;50.886;4.332;2024-02-04T11:31:52;12.00;99.90
13494;DHT22;6819;50.886;4.332;2024-02-04T11:36:44;11.60;99.90
13494;DHT22;6819;50.886;4.332;2024-02-04T11:39:14;12.60;99.90
13494;DHT22;6819;50.886;4.332;2024-02-04T11:41:47;11.90;99.90
13494;DHT22;6819;50.886;4.332;2024-02-04T11:44:23;12.00;99.90
13494;DHT22;6819;50.886;4.332;2024-02-04T11:46:50;12.20;99.90
13494;DHT22;6819;50.886;4.332;2024-02-04T11:49:17;12.00;99.90
13494;DHT22;6819;50.886;4.332;2024-02-04T11:51:47;12.10;99.90
13494;DHT22;6819;50.886;4.332;2024-02-04T11:56:45;11.90;99.90
13494;DHT22;6819;50.886;4.332;2024-02-04T12:04:16;12.10;99.90
13494;DHT22;6819;50.886;4.332;2024-02-04T12:06:42;12.30;99.90
13494;DHT22;6819;50.886;4.332;2024-02-04T12:09:09;12.30;99.90
13494;DHT22;6819;50.886;4.332;2024-02-04T12:14:05;11.90;99.90
13494;DHT22;6819;50.886;4.332;2024-02-04T12:16:33;11.80;99.90
13494;DHT22;6819;50.886;4.332;2024-02-04T12:19:01;12.00;99.90
13494;DHT22;6819;50.886;4.332;2024-02-04T12:21:28;11.90;99.90
13494;DHT22;6819;50.886;4.332;2024-02-04T12:23:54;12.00;99.90
13494;DHT22;6819;50.886;4.332;2024-02-04T12:28:47;11.80;99.90
13494;DHT22;6819;50.886;4.332;2024-02-04T12:33:58;11.80;99.90
13494;DHT22;6819;50.886;4.332;2024-02-04T12:36:28;11.90;99.90
13494;DHT22;6819;50.886;4.332;2024-02-04T12:38:55;11.70;99.90
13494;DHT22;6819;50.886;4.332;2024-02-04T12:41:22;11.60;99.90
13494;DHT22;6819;50.886;4.332;2024-02-04T12:43:52;11.80;99.90
13494;DHT22;6819;50.886;4.332;2024-02-04T12:46:19;12.10;99.90
13494;DHT22;6819;50.886;4.332;2024-02-04T12:48:45;11.90;99.90
13494;DHT22;6819;50.886;4.332;2024-02-04T12:51:24;11.80;99.90
13494;DHT22;6819;50.886;4.332;2024-02-04T12:53:50;11.80;99.90
13494;DHT22;6819;50.886;4.332;2024-02-04T13:01:08;12.00;99.90
13494;DHT22;6819;50.886;4.332;2024-02-04T13:03:34;12.00;99.90
13494;DHT22;6819;50.886;4.332;2024-02-04T13:06:00;11.80;99.90
13494;DHT22;6819;50.886;4.332;2024-02-04T13:08:26;11.80;99.90
13494;DHT22;6819;50.886;4.332;2024-02-04T13:10:56;12.00;99.90
13494;DHT22;6819;50.886;4.332;2024-02-04T13:13:22;11.80;99.90
13494;DHT22;6819;50.886;4.332;2024-02-04T13:15:52;12.10;99.90
13494;DHT22;6819;50.886;4.332;2024-02-04T13:18:18;11.90;99.90
13494;DHT22;6819;50.886;4.332;2024-02-04T13:20:44;13.10;99.90
13494;DHT22;6819;50.886;4.332;2024-02-04T13:23:11;12.10;99.90
13494;DHT22;6819;50.886;4.332;2024-02-04T13:25:37;12.10;99.90
13494;DHT22;6819;50.886;4.332;2024-02-04T13:28:03;12.00;99.90
13494;DHT22;6819;50.886;4.332;2024-02-04T13:30:29;12.10;99.90
13494;DHT22;6819;50.886;4.332;2024-02-04T13:32:56;11.90;99.90
13494;DHT22;6819;50.886;4.332;2024-02-04T13:35:23;12.10;99.90
13494;DHT22;6819;50.886;4.332;2024-02-04T13:37:49;12.30;99.90
13494;DHT22;6819;50.886;4.332;2024-02-04T13:40:21;11.90;99.90
13494;DHT22;6819;50.886;4.332;2024-02-04T13:42:48;11.80;99.90
13494;DHT22;6819;50.886;4.332;2024-02-04T13:45:14;11.90;99.90
13494;DHT22;6819;50.886;4.332;2024-02-04T13:47:40;11.60;99.90
13494;DHT22;6819;50.886;4.332;2024-02-04T13:50:07;11.70;99.90
13494;DHT22;6819;50.886;4.332;2024-02-04T13:52:34;11.70;99.90
13494;DHT22;6819;50.886;4.332;2024-02-04T13:55:00;11.90;99.90
13494;DHT22;6819;50.886;4.332;2024-02-04T13:57:26;11.70;99.90
13494;DHT22;6819;50.886;4.332;2024-02-04T13:59:52;11.50;99.90
13494;DHT22;6819;50.886;4.332;2024-02-04T14:02:17;11.60;99.90
13494;DHT22;6819;50.886;4.332;2024-02-04T14:04:43;11.10;99.90
13494;DHT22;6819;50.886;4.332;2024-02-04T14:07:09;11.60;99.90
13494;DHT22;6819;50.886;4.332;2024-02-04T14:09:35;11.80;99.90
13494;DHT22;6819;50.886;4.332;2024-02-04T14:12:02;11.50;99.90
13494;DHT22;6819;50.886;4.332;2024-02-04T14:14:29;11.60;99.90
13494;DHT22;6819;50.886;4.332;2024-02-04T14:16:55;11.60;99.90
13494;DHT22;6819;50.886;4.332;2024-02-04T14:19:20;12.20;99.90
13494;DHT22;6819;50.886;4.332;2024-02-04T14:21:46;11.60;99.90
13494;DHT22;6819;50.886;4.332;2024-02-04T14:24:12;11.50;99.90
13494;DHT22;6819;50.886;4.332;2024-02-04T14:26:38;11.50;99.90
13494;DHT22;6819;50.886;4.332;2024-02-04T14:29:04;11.50;99.90
13494;DHT22;6819;50.886;4.332;2024-02-04T14:31:30;11.50;99.90
13494;DHT22;6819;50.886;4.332;2024-02-04T14:33:55;11.60;99.90
13494;DHT22;6819;50.886;4.332;2024-02-04T14:36:21;11.50;99.90
13494;DHT22;6819;50.886;4.332;2024-02-04T14:38:47;11.50;99.90
13494;DHT22;6819;50.886;4.332;2024-02-04T14:41:13;11.40;99.90
13494;DHT22;6819;50.886;4.332;2024-02-04T14:43:38;11.50;99.90
13494;DHT22;6819;50.886;4.332;2024-02-04T14:46:04;11.60;99.90
13494;DHT22;6819;50.886;4.332;2024-02-04T14:48:30;11.60;99.90
13494;DHT22;6819;50.886;4.332;2024-02-04T14:50:56;11.50;99.90
13494;DHT22;6819;50.886;4.332;2024-02-04T14:55:49;11.60;99.90
13494;DHT22;6819;50.886;4.332;2024-02-04T14:58:15;11.60;99.90
13494;DHT22;6819;50.886;4.332;2024-02-04T15:00:41;11.70;99.90
13494;DHT22;6819;50.886;4.332;2024-02-04T15:03:06;11.50;99.90
13494;DHT22;6819;50.886;4.332;2024-02-04T15:05:32;11.70;99.90
13494;DHT22;6819;50.886;4.332;2024-02-04T15:07:58;11.60;99.90
13494;DHT22;6819;50.886;4.332;2024-02-04T15:10:23;11.50;99.90
13494;DHT22;6819;50.886;4.332;2024-02-04T15:12:49;11.90;99.90
13494;DHT22;6819;50.886;4.332;2024-02-04T15:15:18;12.20;99.90
13494;DHT22;6819;50.886;4.332;2024-02-04T15:17:44;11.60;99.90
13494;DHT22;6819;50.886;4.332;2024-02-04T15:20:10;11.50;99.90
13494;DHT22;6819;50.886;4.332;2024-02-04T15:22:39;11.90;99.90
13494;DHT22;6819;50.886;4.332;2024-02-04T15:25:06;11.60;99.90
13494;DHT22;6819;50.886;4.332;2024-02-04T15:27:34;12.00;99.90
13494;DHT22;6819;50.886;4.332;2024-02-04T15:32:26;11.70;99.90
13494;DHT22;6819;50.886;4.332;2024-02-04T15:34:52;12.00;99.90
13494;DHT22;6819;50.886;4.332;2024-02-04T15:37:18;12.20;99.90
13494;DHT22;6819;50.886;4.332;2024-02-04T15:42:10;11.80;99.90
13494;DHT22;6819;50.886;4.332;2024-02-04T15:44:36;11.40;99.90
13494;DHT22;6819;50.886;4.332;2024-02-04T15:49:31;11.80;99.90
13494;DHT22;6819;50.886;4.332;2024-02-04T15:51:57;11.70;99.90
13494;DHT22;6819;50.886;4.332;2024-02-04T15:54:23;11.80;99.90
13494;DHT22;6819;50.886;4.332;2024-02-04T15:59:45;11.80;99.90
13494;DHT22;6819;50.886;4.332;2024-02-04T16:04:40;11.80;99.90
13494;DHT22;6819;50.886;4.332;2024-02-04T16:07:07;11.80;99.90
13494;DHT22;6819;50.886;4.332;2024-02-04T16:09:34;11.90;99.90
13494;DHT22;6819;50.886;4.332;2024-02-04T16:14:26;11.80;99.90
13494;DHT22;6819;50.886;4.332;2024-02-04T16:17:01;11.90;99.90
13494;DHT22;6819;50.886;4.332;2024-02-04T16:19:32;11.80;99.90
13494;DHT22;6819;50.886;4.332;2024-02-04T16:21:58;11.80;99.90
13494;DHT22;6819;50.886;4.332;2024-02-04T16:24:23;11.70;99.90
13494;DHT22;6819;50.886;4.332;2024-02-04T16:26:49;11.80;99.90
13494;DHT22;6819;50.886;4.332;2024-02-04T16:31:41;11.90;99.90
13494;DHT22;6819;50.886;4.332;2024-02-04T16:34:06;11.90;99.90
13494;DHT22;6819;50.886;4.332;2024-02-04T16:36:32;11.90;99.90
13494;DHT22;6819;50.886;4.332;2024-02-04T16:38:58;10.90;99.90
13494;DHT22;6819;50.886;4.332;2024-02-04T16:41:23;11.60;99.90
13494;DHT22;6819;50.886;4.332;2024-02-04T16:43:49;11.80;99.90
13494;DHT22;6819;50.886;4.332;2024-02-04T16:46:15;12.10;99.90
13494;DHT22;6819;50.886;4.332;2024-02-04T16:48:41;11.80;99.90
13494;DHT22;6819;50.886;4.332;2024-02-04T16:51:07;11.70;99.90
13494;DHT22;6819;50.886;4.332;2024-02-04T16:53:35;11.80;99.90
13494;DHT22;6819;50.886;4.332;2024-02-04T16:56:01;11.80;99.90
13494;DHT22;6819;50.886;4.332;2024-02-04T16:58:27;11.80;99.90
13494;DHT22;6819;50.886;4.332;2024-02-04T17:00:52;11.90;99.90
13494;DHT22;6819;50.886;4.332;2024-02-04T17:03:18;11.80;99.90
13494;DHT22;6819;50.886;4.332;2024-02-04T17:05:44;11.80;99.90
13494;DHT22;6819;50.886;4.332;2024-02-04T17:08:10;12.00;99.90
13494;DHT22;6819;50.886;4.332;2024-02-04T17:10:37;12.20;99.90
13494;DHT22;6819;50.886;4.332;2024-02-04T17:13:03;11.70;99.90
13494;DHT22;6819;50.886;4.332;2024-02-04T17:15:29;11.70;99.90
13494;DHT22;6819;50.886;4.332;2024-02-04T17:18:01;11.70;99.90
13494;DHT22;6819;50.886;4.332;2024-02-04T17:20:31;11.70;99.90
13494;DHT22;6819;50.886;4.332;2024-02-04T17:23:01;11.70;99.90
13494;DHT22;6819;50.886;4.332;2024-02-04T17:33:00;11.60;99.90
13494;DHT22;6819;50.886;4.332;2024-02-04T17:35:26;11.70;99.90